sensor_id;sensor_type;location;lat;lon;timestamp;P1;durP1;ratioP1;P2;durP2;ratioP2
6763;SDS011;47432;48.760;9.178;2023-04-03T00:00:34;10.30;;;2.93;;
6763;SDS011;47432;48.760;9.178;2023-04-03T00:03:00;8.73;;;2.80;;
6763;SDS011;47432;48.760;9.178;2023-04-03T00:05:26;10.10;;;3.73;;
6763;SDS011;47432;48.760;9.178;2023-04-03T00:07:52;9.30;;;3.60;;
6763;SDS011;47432;48.760;9.178;2023-04-03T00:10:18;9.53;;;3.13;;
6763;SDS011;47432;48.760;9.178;2023-04-03T00:12:44;9.63;;;3.20;;
6763;SDS011;47432;48.760;9.178;2023-04-03T00:15:10;8.30;;;2.73;;
6763;SDS011;47432;48.760;9.178;2023-04-03T00:17:36;8.60;;;2.97;;
6763;SDS011;47432;48.760;9.178;2023-04-03T00:20:03;8.57;;;3.07;;
6763;SDS011;47432;48.760;9.178;2023-04-03T00:22:29;9.80;;;2.93;;
6763;SDS011;47432;48.760;9.178;2023-04-03T00:24:55;12.90;;;3.60;;
6763;SDS011;47432;48.760;9.178;2023-04-03T00:27:21;9.40;;;3.10;;
6763;SDS011;47432;48.760;9.178;2023-04-03T00:29:47;8.00;;;2.40;;
6763;SDS011;47432;48.760;9.178;2023-04-03T00:32:16;8.90;;;2.70;;
6763;SDS011;47432;48.760;9.178;2023-04-03T00:34:41;9.03;;;2.70;;
6763;SDS011;47432;48.760;9.178;2023-04-03T00:37:07;9.37;;;3.40;;
6763;SDS011;47432;48.760;9.178;2023-04-03T00:39:32;10.23;;;3.17;;
6763;SDS011;47432;48.760;9.178;2023-04-03T00:41:58;9.13;;;3.10;;
6763;SDS011;47432;48.760;9.178;2023-04-03T00:47:05;11.77;;;3.60;;
6763;SDS011;47432;48.760;9.178;2023-04-03T00:49:33;8.33;;;3.07;;
6763;SDS011;47432;48.760;9.178;2023-04-03T00:52:00;9.13;;;2.80;;
6763;SDS011;47432;48.760;9.178;2023-04-03T00:54:26;8.90;;;3.00;;
6763;SDS011;47432;48.760;9.178;2023-04-03T00:56:53;8.97;;;3.30;;
6763;SDS011;47432;48.760;9.178;2023-04-03T00:59:24;9.50;;;3.33;;
6763;SDS011;47432;48.760;9.178;2023-04-03T01:01:55;8.40;;;3.37;;
6763;SDS011;47432;48.760;9.178;2023-04-03T01:04:28;9.93;;;3.73;;
6763;SDS011;47432;48.760;9.178;2023-04-03T01:06:56;9.47;;;3.30;;
6763;SDS011;47432;48.760;9.178;2023-04-03T01:09:27;9.47;;;3.10;;
6763;SDS011;47432;48.760;9.178;2023-04-03T01:11:53;10.40;;;3.40;;
6763;SDS011;47432;48.760;9.178;2023-04-03T01:14:19;10.90;;;3.53;;
6763;SDS011;47432;48.760;9.178;2023-04-03T01:16:53;9.00;;;2.93;;
6763;SDS011;47432;48.760;9.178;2023-04-03T01:19:19;10.47;;;3.57;;
6763;SDS011;47432;48.760;9.178;2023-04-03T01:24:34;8.80;;;3.13;;
6763;SDS011;47432;48.760;9.178;2023-04-03T01:27:03;21.37;;;4.00;;
6763;SDS011;47432;48.760;9.178;2023-04-03T01:29:34;10.73;;;3.67;;
6763;SDS011;47432;48.760;9.178;2023-04-03T01:32:01;12.77;;;3.63;;
6763;SDS011;47432;48.760;9.178;2023-04-03T01:34:27;7.80;;;2.77;;
6763;SDS011;47432;48.760;9.178;2023-04-03T01:36:54;10.80;;;3.43;;
6763;SDS011;47432;48.760;9.178;2023-04-03T01:39:20;9.53;;;3.00;;
6763;SDS011;47432;48.760;9.178;2023-04-03T01:41:46;8.30;;;2.57;;
6763;SDS011;47432;48.760;9.178;2023-04-03T01:44:13;10.00;;;3.37;;
6763;SDS011;47432;48.760;9.178;2023-04-03T01:46:41;9.30;;;2.93;;
6763;SDS011;47432;48.760;9.178;2023-04-03T01:49:07;10.07;;;3.30;;
6763;SDS011;47432;48.760;9.178;2023-04-03T01:51:33;9.07;;;3.10;;
6763;SDS011;47432;48.760;9.178;2023-04-03T01:53:59;9.90;;;3.50;;
6763;SDS011;47432;48.760;9.178;2023-04-03T01:56:25;10.47;;;3.40;;
6763;SDS011;47432;48.760;9.178;2023-04-03T01:58:51;9.47;;;3.80;;
6763;SDS011;47432;48.760;9.178;2023-04-03T02:01:17;10.60;;;3.47;;
6763;SDS011;47432;48.760;9.178;2023-04-03T02:03:43;10.10;;;4.07;;
6763;SDS011;47432;48.760;9.178;2023-04-03T02:06:09;9.70;;;3.10;;
6763;SDS011;47432;48.760;9.178;2023-04-03T02:08:35;9.00;;;2.90;;
6763;SDS011;47432;48.760;9.178;2023-04-03T02:11:00;9.00;;;3.60;;
6763;SDS011;47432;48.760;9.178;2023-04-03T02:13:27;11.47;;;3.43;;
6763;SDS011;47432;48.760;9.178;2023-04-03T02:15:53;9.20;;;3.27;;
6763;SDS011;47432;48.760;9.178;2023-04-03T02:18:21;12.93;;;3.37;;
6763;SDS011;47432;48.760;9.178;2023-04-03T02:20:47;9.63;;;3.37;;
6763;SDS011;47432;48.760;9.178;2023-04-03T02:23:13;9.90;;;3.50;;
6763;SDS011;47432;48.760;9.178;2023-04-03T02:25:39;8.77;;;2.83;;
6763;SDS011;47432;48.760;9.178;2023-04-03T02:28:05;9.33;;;3.20;;
6763;SDS011;47432;48.760;9.178;2023-04-03T02:30:31;9.73;;;3.30;;
6763;SDS011;47432;48.760;9.178;2023-04-03T02:32:57;8.90;;;3.30;;
6763;SDS011;47432;48.760;9.178;2023-04-03T02:35:23;9.50;;;3.20;;
6763;SDS011;47432;48.760;9.178;2023-04-03T02:37:48;10.80;;;2.87;;
6763;SDS011;47432;48.760;9.178;2023-04-03T02:40:16;12.13;;;2.90;;
6763;SDS011;47432;48.760;9.178;2023-04-03T02:42:42;9.90;;;3.33;;
6763;SDS011;47432;48.760;9.178;2023-04-03T02:45:09;9.13;;;3.03;;
6763;SDS011;47432;48.760;9.178;2023-04-03T02:47:35;9.77;;;3.00;;
6763;SDS011;47432;48.760;9.178;2023-04-03T02:50:01;8.80;;;2.63;;
6763;SDS011;47432;48.760;9.178;2023-04-03T02:52:26;12.70;;;5.00;;
6763;SDS011;47432;48.760;9.178;2023-04-03T02:54:52;8.80;;;2.53;;
6763;SDS011;47432;48.760;9.178;2023-04-03T02:57:18;9.07;;;2.97;;
6763;SDS011;47432;48.760;9.178;2023-04-03T02:59:44;9.63;;;2.57;;
6763;SDS011;47432;48.760;9.178;2023-04-03T03:02:11;9.43;;;3.40;;
6763;SDS011;47432;48.760;9.178;2023-04-03T03:04:36;10.30;;;3.30;;
6763;SDS011;47432;48.760;9.178;2023-04-03T03:07:02;8.40;;;3.00;;
6763;SDS011;47432;48.760;9.178;2023-04-03T03:09:29;9.10;;;3.33;;
6763;SDS011;47432;48.760;9.178;2023-04-03T03:11:55;9.00;;;3.90;;
6763;SDS011;47432;48.760;9.178;2023-04-03T03:14:21;10.57;;;3.43;;
6763;SDS011;47432;48.760;9.178;2023-04-03T03:16:48;11.23;;;3.50;;
6763;SDS011;47432;48.760;9.178;2023-04-03T03:19:14;9.97;;;3.43;;
6763;SDS011;47432;48.760;9.178;2023-04-03T03:21:40;9.90;;;3.60;;
6763;SDS011;47432;48.760;9.178;2023-04-03T03:24:07;10.20;;;3.23;;
6763;SDS011;47432;48.760;9.178;2023-04-03T03:26:33;9.90;;;3.30;;
6763;SDS011;47432;48.760;9.178;2023-04-03T03:28:59;8.80;;;3.00;;
6763;SDS011;47432;48.760;9.178;2023-04-03T03:31:25;12.07;;;2.77;;
6763;SDS011;47432;48.760;9.178;2023-04-03T03:33:51;8.73;;;3.00;;
6763;SDS011;47432;48.760;9.178;2023-04-03T03:36:17;10.13;;;3.20;;
6763;SDS011;47432;48.760;9.178;2023-04-03T03:38:43;8.90;;;2.70;;
6763;SDS011;47432;48.760;9.178;2023-04-03T03:41:08;8.87;;;2.93;;
6763;SDS011;47432;48.760;9.178;2023-04-03T03:43:34;10.17;;;3.27;;
6763;SDS011;47432;48.760;9.178;2023-04-03T03:46:00;10.03;;;3.17;;
6763;SDS011;47432;48.760;9.178;2023-04-03T03:48:26;11.80;;;3.03;;
6763;SDS011;47432;48.760;9.178;2023-04-03T03:50:52;9.70;;;3.10;;
6763;SDS011;47432;48.760;9.178;2023-04-03T03:53:18;7.60;;;2.20;;
6763;SDS011;47432;48.760;9.178;2023-04-03T03:55:44;11.23;;;3.17;;
6763;SDS011;47432;48.760;9.178;2023-04-03T03:58:10;10.40;;;3.10;;
6763;SDS011;47432;48.760;9.178;2023-04-03T04:00:36;9.83;;;3.20;;
6763;SDS011;47432;48.760;9.178;2023-04-03T04:03:02;9.60;;;3.20;;
6763;SDS011;47432;48.760;9.178;2023-04-03T04:05:28;9.40;;;3.20;;
6763;SDS011;47432;48.760;9.178;2023-04-03T04:07:54;9.30;;;3.17;;
6763;SDS011;47432;48.760;9.178;2023-04-03T04:10:20;11.57;;;3.17;;
6763;SDS011;47432;48.760;9.178;2023-04-03T04:12:48;9.47;;;3.00;;
6763;SDS011;47432;48.760;9.178;2023-04-03T04:15:16;10.87;;;3.30;;
6763;SDS011;47432;48.760;9.178;2023-04-03T04:17:42;8.77;;;2.77;;
6763;SDS011;47432;48.760;9.178;2023-04-03T04:20:08;9.57;;;3.20;;
6763;SDS011;47432;48.760;9.178;2023-04-03T04:22:34;10.00;;;3.20;;
6763;SDS011;47432;48.760;9.178;2023-04-03T04:25:00;11.50;;;3.20;;
6763;SDS011;47432;48.760;9.178;2023-04-03T04:27:26;8.60;;;3.30;;
6763;SDS011;47432;48.760;9.178;2023-04-03T04:29:52;9.20;;;2.70;;
6763;SDS011;47432;48.760;9.178;2023-04-03T04:32:18;8.63;;;2.73;;
6763;SDS011;47432;48.760;9.178;2023-04-03T04:34:44;8.33;;;2.83;;
6763;SDS011;47432;48.760;9.178;2023-04-03T04:37:10;10.07;;;3.37;;
6763;SDS011;47432;48.760;9.178;2023-04-03T04:39:38;8.70;;;2.73;;
6763;SDS011;47432;48.760;9.178;2023-04-03T04:42:04;9.60;;;3.70;;
6763;SDS011;47432;48.760;9.178;2023-04-03T04:44:32;8.80;;;3.30;;
6763;SDS011;47432;48.760;9.178;2023-04-03T04:46:58;10.13;;;2.83;;
6763;SDS011;47432;48.760;9.178;2023-04-03T04:49:23;8.47;;;2.90;;
6763;SDS011;47432;48.760;9.178;2023-04-03T04:51:49;9.07;;;2.93;;
6763;SDS011;47432;48.760;9.178;2023-04-03T04:54:15;8.80;;;2.30;;
6763;SDS011;47432;48.760;9.178;2023-04-03T04:56:41;9.97;;;2.97;;
6763;SDS011;47432;48.760;9.178;2023-04-03T04:59:07;11.33;;;2.60;;
6763;SDS011;47432;48.760;9.178;2023-04-03T05:01:33;10.00;;;3.07;;
6763;SDS011;47432;48.760;9.178;2023-04-03T05:04:00;9.43;;;2.97;;
6763;SDS011;47432;48.760;9.178;2023-04-03T05:06:26;9.30;;;2.77;;
6763;SDS011;47432;48.760;9.178;2023-04-03T05:08:52;10.70;;;2.70;;
6763;SDS011;47432;48.760;9.178;2023-04-03T05:11:18;10.13;;;2.83;;
6763;SDS011;47432;48.760;9.178;2023-04-03T05:13:45;8.30;;;2.43;;
6763;SDS011;47432;48.760;9.178;2023-04-03T05:16:11;8.50;;;2.60;;
6763;SDS011;47432;48.760;9.178;2023-04-03T05:18:37;8.30;;;2.47;;
6763;SDS011;47432;48.760;9.178;2023-04-03T05:21:03;8.93;;;2.70;;
6763;SDS011;47432;48.760;9.178;2023-04-03T05:23:29;8.80;;;2.47;;
6763;SDS011;47432;48.760;9.178;2023-04-03T05:25:55;9.80;;;2.67;;
6763;SDS011;47432;48.760;9.178;2023-04-03T05:28:23;8.10;;;2.20;;
6763;SDS011;47432;48.760;9.178;2023-04-03T05:30:53;9.67;;;2.70;;
6763;SDS011;47432;48.760;9.178;2023-04-03T05:33:23;8.93;;;2.80;;
6763;SDS011;47432;48.760;9.178;2023-04-03T05:35:51;9.57;;;3.07;;
6763;SDS011;47432;48.760;9.178;2023-04-03T05:38:17;15.23;;;3.43;;
6763;SDS011;47432;48.760;9.178;2023-04-03T05:40:43;8.70;;;2.93;;
6763;SDS011;47432;48.760;9.178;2023-04-03T05:43:09;8.00;;;2.30;;
6763;SDS011;47432;48.760;9.178;2023-04-03T05:45:36;10.63;;;2.77;;
6763;SDS011;47432;48.760;9.178;2023-04-03T05:48:01;10.93;;;2.83;;
6763;SDS011;47432;48.760;9.178;2023-04-03T05:50:27;9.10;;;3.00;;
6763;SDS011;47432;48.760;9.178;2023-04-03T05:52:53;12.33;;;2.60;;
6763;SDS011;47432;48.760;9.178;2023-04-03T05:55:23;8.80;;;2.60;;
6763;SDS011;47432;48.760;9.178;2023-04-03T05:57:48;9.63;;;3.10;;
6763;SDS011;47432;48.760;9.178;2023-04-03T06:00:15;9.40;;;2.70;;
6763;SDS011;47432;48.760;9.178;2023-04-03T06:02:41;11.20;;;3.40;;
6763;SDS011;47432;48.760;9.178;2023-04-03T06:05:08;11.10;;;2.30;;
6763;SDS011;47432;48.760;9.178;2023-04-03T06:07:36;9.23;;;2.67;;
6763;SDS011;47432;48.760;9.178;2023-04-03T06:10:02;11.37;;;2.30;;
6763;SDS011;47432;48.760;9.178;2023-04-03T06:12:29;9.77;;;2.83;;
6763;SDS011;47432;48.760;9.178;2023-04-03T06:14:55;9.10;;;2.53;;
6763;SDS011;47432;48.760;9.178;2023-04-03T06:17:21;9.10;;;3.27;;
6763;SDS011;47432;48.760;9.178;2023-04-03T06:19:47;10.43;;;3.13;;
6763;SDS011;47432;48.760;9.178;2023-04-03T06:22:13;11.20;;;2.77;;
6763;SDS011;47432;48.760;9.178;2023-04-03T06:24:39;12.00;;;3.33;;
6763;SDS011;47432;48.760;9.178;2023-04-03T06:27:05;9.20;;;2.93;;
6763;SDS011;47432;48.760;9.178;2023-04-03T06:29:32;10.27;;;3.03;;
6763;SDS011;47432;48.760;9.178;2023-04-03T06:31:58;10.23;;;3.20;;
6763;SDS011;47432;48.760;9.178;2023-04-03T06:34:23;12.30;;;2.83;;
6763;SDS011;47432;48.760;9.178;2023-04-03T06:36:49;11.47;;;3.30;;
6763;SDS011;47432;48.760;9.178;2023-04-03T06:39:18;10.90;;;3.20;;
6763;SDS011;47432;48.760;9.178;2023-04-03T06:41:47;9.07;;;2.67;;
6763;SDS011;47432;48.760;9.178;2023-04-03T06:44:13;8.67;;;2.43;;
6763;SDS011;47432;48.760;9.178;2023-04-03T06:46:41;9.10;;;2.30;;
6763;SDS011;47432;48.760;9.178;2023-04-03T06:49:08;13.40;;;2.40;;
6763;SDS011;47432;48.760;9.178;2023-04-03T06:51:34;10.50;;;3.07;;
6763;SDS011;47432;48.760;9.178;2023-04-03T06:54:02;11.00;;;2.90;;
6763;SDS011;47432;48.760;9.178;2023-04-03T06:56:29;12.07;;;2.90;;
6763;SDS011;47432;48.760;9.178;2023-04-03T06:58:55;11.30;;;3.30;;
6763;SDS011;47432;48.760;9.178;2023-04-03T07:01:26;10.53;;;3.07;;
6763;SDS011;47432;48.760;9.178;2023-04-03T07:03:54;10.90;;;3.07;;
6763;SDS011;47432;48.760;9.178;2023-04-03T07:06:20;11.07;;;3.23;;
6763;SDS011;47432;48.760;9.178;2023-04-03T07:08:46;11.53;;;3.07;;
6763;SDS011;47432;48.760;9.178;2023-04-03T07:11:16;8.43;;;2.33;;
6763;SDS011;47432;48.760;9.178;2023-04-03T07:13:42;9.50;;;3.00;;
6763;SDS011;47432;48.760;9.178;2023-04-03T07:16:08;10.67;;;3.20;;
6763;SDS011;47432;48.760;9.178;2023-04-03T07:18:34;10.03;;;3.00;;
6763;SDS011;47432;48.760;9.178;2023-04-03T07:21:00;10.77;;;2.90;;
6763;SDS011;47432;48.760;9.178;2023-04-03T07:23:27;15.63;;;2.83;;
6763;SDS011;47432;48.760;9.178;2023-04-03T07:25:53;10.70;;;2.43;;
6763;SDS011;47432;48.760;9.178;2023-04-03T07:28:19;9.80;;;2.60;;
6763;SDS011;47432;48.760;9.178;2023-04-03T07:30:48;10.47;;;2.37;;
6763;SDS011;47432;48.760;9.178;2023-04-03T07:33:17;8.70;;;2.33;;
6763;SDS011;47432;48.760;9.178;2023-04-03T07:35:45;10.43;;;3.30;;
6763;SDS011;47432;48.760;9.178;2023-04-03T07:38:11;10.30;;;2.50;;
6763;SDS011;47432;48.760;9.178;2023-04-03T07:40:38;10.53;;;2.63;;
6763;SDS011;47432;48.760;9.178;2023-04-03T07:43:04;9.10;;;2.63;;
6763;SDS011;47432;48.760;9.178;2023-04-03T07:45:30;9.63;;;3.10;;
6763;SDS011;47432;48.760;9.178;2023-04-03T07:47:58;10.50;;;3.13;;
6763;SDS011;47432;48.760;9.178;2023-04-03T07:50:23;11.37;;;3.67;;
6763;SDS011;47432;48.760;9.178;2023-04-03T07:52:50;11.93;;;2.83;;
6763;SDS011;47432;48.760;9.178;2023-04-03T07:55:17;9.90;;;3.07;;
6763;SDS011;47432;48.760;9.178;2023-04-03T07:57:43;9.63;;;2.60;;
6763;SDS011;47432;48.760;9.178;2023-04-03T08:00:09;9.30;;;2.63;;
6763;SDS011;47432;48.760;9.178;2023-04-03T08:02:37;9.97;;;2.50;;
6763;SDS011;47432;48.760;9.178;2023-04-03T08:05:03;13.40;;;2.90;;
6763;SDS011;47432;48.760;9.178;2023-04-03T08:07:29;10.30;;;3.00;;
6763;SDS011;47432;48.760;9.178;2023-04-03T08:09:54;8.80;;;2.03;;
6763;SDS011;47432;48.760;9.178;2023-04-03T08:12:20;9.20;;;2.70;;
6763;SDS011;47432;48.760;9.178;2023-04-03T08:14:46;10.90;;;2.80;;
6763;SDS011;47432;48.760;9.178;2023-04-03T08:17:12;8.93;;;2.60;;
6763;SDS011;47432;48.760;9.178;2023-04-03T08:19:38;11.30;;;3.10;;
6763;SDS011;47432;48.760;9.178;2023-04-03T08:22:04;9.17;;;2.93;;
6763;SDS011;47432;48.760;9.178;2023-04-03T08:24:31;10.10;;;3.23;;
6763;SDS011;47432;48.760;9.178;2023-04-03T08:26:58;11.37;;;3.47;;
6763;SDS011;47432;48.760;9.178;2023-04-03T08:29:25;11.83;;;3.13;;
6763;SDS011;47432;48.760;9.178;2023-04-03T08:31:50;11.33;;;3.47;;
6763;SDS011;47432;48.760;9.178;2023-04-03T08:34:17;9.10;;;2.90;;
6763;SDS011;47432;48.760;9.178;2023-04-03T08:36:46;10.60;;;3.17;;
6763;SDS011;47432;48.760;9.178;2023-04-03T08:39:12;12.13;;;3.33;;
6763;SDS011;47432;48.760;9.178;2023-04-03T08:41:41;10.40;;;3.50;;
6763;SDS011;47432;48.760;9.178;2023-04-03T08:47:24;10.53;;;2.77;;
6763;SDS011;47432;48.760;9.178;2023-04-03T08:50:49;10.90;;;2.50;;
6763;SDS011;47432;48.760;9.178;2023-04-03T08:53:24;11.30;;;3.13;;
6763;SDS011;47432;48.760;9.178;2023-04-03T08:55:57;10.00;;;2.77;;
6763;SDS011;47432;48.760;9.178;2023-04-03T08:58:30;10.40;;;3.23;;
6763;SDS011;47432;48.760;9.178;2023-04-03T09:01:15;8.87;;;2.43;;
6763;SDS011;47432;48.760;9.178;2023-04-03T09:03:49;12.10;;;3.23;;
6763;SDS011;47432;48.760;9.178;2023-04-03T09:06:17;9.60;;;2.13;;
6763;SDS011;47432;48.760;9.178;2023-04-03T09:14:38;10.90;;;2.40;;
6763;SDS011;47432;48.760;9.178;2023-04-03T09:17:29;8.80;;;2.60;;
6763;SDS011;47432;48.760;9.178;2023-04-03T09:23:39;9.70;;;2.97;;
6763;SDS011;47432;48.760;9.178;2023-04-03T09:26:21;10.63;;;2.57;;
6763;SDS011;47432;48.760;9.178;2023-04-03T09:28:54;8.63;;;2.27;;
6763;SDS011;47432;48.760;9.178;2023-04-03T09:31:28;11.13;;;2.60;;
6763;SDS011;47432;48.760;9.178;2023-04-03T09:34:10;8.83;;;2.43;;
6763;SDS011;47432;48.760;9.178;2023-04-03T09:37:04;11.40;;;2.53;;
6763;SDS011;47432;48.760;9.178;2023-04-03T09:39:54;9.50;;;2.40;;
6763;SDS011;47432;48.760;9.178;2023-04-03T09:42:21;8.70;;;2.60;;
6763;SDS011;47432;48.760;9.178;2023-04-03T09:44:55;9.97;;;2.13;;
6763;SDS011;47432;48.760;9.178;2023-04-03T09:47:33;9.70;;;2.33;;
6763;SDS011;47432;48.760;9.178;2023-04-03T09:50:18;8.70;;;1.87;;
6763;SDS011;47432;48.760;9.178;2023-04-03T09:52:48;11.00;;;2.63;;
6763;SDS011;47432;48.760;9.178;2023-04-03T09:55:26;9.90;;;2.67;;
6763;SDS011;47432;48.760;9.178;2023-04-03T09:58:04;8.87;;;2.43;;
6763;SDS011;47432;48.760;9.178;2023-04-03T10:00:54;10.07;;;3.00;;
6763;SDS011;47432;48.760;9.178;2023-04-03T10:03:34;9.43;;;2.27;;
6763;SDS011;47432;48.760;9.178;2023-04-03T10:06:04;13.23;;;2.73;;
6763;SDS011;47432;48.760;9.178;2023-04-03T10:08:59;8.70;;;1.80;;
6763;SDS011;47432;48.760;9.178;2023-04-03T10:11:30;12.20;;;3.23;;
6763;SDS011;47432;48.760;9.178;2023-04-03T10:14:00;10.33;;;2.53;;
6763;SDS011;47432;48.760;9.178;2023-04-03T10:16:40;12.63;;;2.57;;
6763;SDS011;47432;48.760;9.178;2023-04-03T10:19:34;10.00;;;2.30;;
6763;SDS011;47432;48.760;9.178;2023-04-03T10:25:12;9.50;;;2.00;;
6763;SDS011;47432;48.760;9.178;2023-04-03T10:27:56;8.83;;;2.40;;
6763;SDS011;47432;48.760;9.178;2023-04-03T10:39:39;8.63;;;2.23;;
6763;SDS011;47432;48.760;9.178;2023-04-03T10:42:18;9.20;;;2.50;;
6763;SDS011;47432;48.760;9.178;2023-04-03T10:45:33;10.30;;;2.47;;
6763;SDS011;47432;48.760;9.178;2023-04-03T10:53:49;8.97;;;2.20;;
6763;SDS011;47432;48.760;9.178;2023-04-03T10:56:41;9.10;;;2.20;;
6763;SDS011;47432;48.760;9.178;2023-04-03T11:04:56;11.03;;;2.57;;
6763;SDS011;47432;48.760;9.178;2023-04-03T11:07:28;9.20;;;2.40;;
6763;SDS011;47432;48.760;9.178;2023-04-03T11:10:10;10.40;;;2.50;;
6763;SDS011;47432;48.760;9.178;2023-04-03T11:13:38;10.60;;;2.37;;
6763;SDS011;47432;48.760;9.178;2023-04-03T11:16:18;9.80;;;2.20;;
6763;SDS011;47432;48.760;9.178;2023-04-03T11:18:51;9.80;;;2.03;;
6763;SDS011;47432;48.760;9.178;2023-04-03T11:21:28;9.00;;;2.10;;
6763;SDS011;47432;48.760;9.178;2023-04-03T11:24:11;8.80;;;1.83;;
6763;SDS011;47432;48.760;9.178;2023-04-03T11:26:47;10.90;;;2.23;;
6763;SDS011;47432;48.760;9.178;2023-04-03T11:29:18;9.80;;;1.83;;
6763;SDS011;47432;48.760;9.178;2023-04-03T11:34:58;8.47;;;1.90;;
6763;SDS011;47432;48.760;9.178;2023-04-03T11:37:33;8.80;;;2.00;;
6763;SDS011;47432;48.760;9.178;2023-04-03T11:40:05;9.67;;;2.13;;
6763;SDS011;47432;48.760;9.178;2023-04-03T11:43:04;9.60;;;1.97;;
6763;SDS011;47432;48.760;9.178;2023-04-03T11:45:58;9.30;;;2.00;;
6763;SDS011;47432;48.760;9.178;2023-04-03T11:51:03;10.10;;;2.10;;
6763;SDS011;47432;48.760;9.178;2023-04-03T11:57:22;9.50;;;1.97;;
6763;SDS011;47432;48.760;9.178;2023-04-03T12:08:47;11.00;;;2.13;;
6763;SDS011;47432;48.760;9.178;2023-04-03T12:11:25;12.20;;;2.27;;
6763;SDS011;47432;48.760;9.178;2023-04-03T12:19:13;10.60;;;2.30;;
6763;SDS011;47432;48.760;9.178;2023-04-03T12:24:32;7.97;;;1.60;;
6763;SDS011;47432;48.760;9.178;2023-04-03T12:27:17;10.43;;;2.30;;
6763;SDS011;47432;48.760;9.178;2023-04-03T12:30:04;9.40;;;1.93;;
6763;SDS011;47432;48.760;9.178;2023-04-03T12:33:03;8.63;;;1.80;;
6763;SDS011;47432;48.760;9.178;2023-04-03T12:36:10;8.77;;;1.80;;
6763;SDS011;47432;48.760;9.178;2023-04-03T12:41:31;10.33;;;2.10;;
6763;SDS011;47432;48.760;9.178;2023-04-03T12:44:13;10.07;;;2.20;;
6763;SDS011;47432;48.760;9.178;2023-04-03T12:46:58;12.70;;;2.20;;
6763;SDS011;47432;48.760;9.178;2023-04-03T12:49:33;10.17;;;1.90;;
6763;SDS011;47432;48.760;9.178;2023-04-03T12:52:06;9.30;;;2.13;;
6763;SDS011;47432;48.760;9.178;2023-04-03T12:54:58;8.90;;;1.73;;
6763;SDS011;47432;48.760;9.178;2023-04-03T12:57:29;8.90;;;1.70;;
6763;SDS011;47432;48.760;9.178;2023-04-03T12:59:57;13.33;;;3.07;;
6763;SDS011;47432;48.760;9.178;2023-04-03T13:02:31;8.40;;;1.97;;
6763;SDS011;47432;48.760;9.178;2023-04-03T13:05:06;8.70;;;2.00;;
6763;SDS011;47432;48.760;9.178;2023-04-03T13:07:38;11.00;;;2.70;;
6763;SDS011;47432;48.760;9.178;2023-04-03T13:12:55;9.73;;;1.90;;
6763;SDS011;47432;48.760;9.178;2023-04-03T13:15:26;8.80;;;1.90;;
6763;SDS011;47432;48.760;9.178;2023-04-03T13:18:05;11.90;;;2.30;;
6763;SDS011;47432;48.760;9.178;2023-04-03T13:20:58;9.50;;;2.40;;
6763;SDS011;47432;48.760;9.178;2023-04-03T13:23:37;10.80;;;2.30;;
6763;SDS011;47432;48.760;9.178;2023-04-03T13:26:07;13.57;;;2.53;;
6763;SDS011;47432;48.760;9.178;2023-04-03T13:28:34;9.13;;;2.00;;
6763;SDS011;47432;48.760;9.178;2023-04-03T13:36:39;8.37;;;2.17;;
6763;SDS011;47432;48.760;9.178;2023-04-03T13:41:50;11.30;;;2.47;;
6763;SDS011;47432;48.760;9.178;2023-04-03T13:47:14;9.90;;;1.90;;
6763;SDS011;47432;48.760;9.178;2023-04-03T13:50:12;9.40;;;1.80;;
6763;SDS011;47432;48.760;9.178;2023-04-03T13:53:01;9.17;;;2.37;;
6763;SDS011;47432;48.760;9.178;2023-04-03T13:55:36;11.40;;;2.27;;
6763;SDS011;47432;48.760;9.178;2023-04-03T13:58:22;9.73;;;1.80;;
6763;SDS011;47432;48.760;9.178;2023-04-03T14:03:45;9.70;;;2.27;;
6763;SDS011;47432;48.760;9.178;2023-04-03T14:06:21;9.10;;;1.90;;
6763;SDS011;47432;48.760;9.178;2023-04-03T14:08:47;9.70;;;2.00;;
6763;SDS011;47432;48.760;9.178;2023-04-03T14:13:49;15.37;;;2.60;;
6763;SDS011;47432;48.760;9.178;2023-04-03T14:16:16;8.80;;;2.40;;
6763;SDS011;47432;48.760;9.178;2023-04-03T14:18:47;9.77;;;2.30;;
6763;SDS011;47432;48.760;9.178;2023-04-03T14:21:15;8.87;;;2.13;;
6763;SDS011;47432;48.760;9.178;2023-04-03T14:23:42;8.97;;;2.10;;
6763;SDS011;47432;48.760;9.178;2023-04-03T14:26:10;11.93;;;2.00;;
6763;SDS011;47432;48.760;9.178;2023-04-03T14:28:48;8.70;;;1.90;;
6763;SDS011;47432;48.760;9.178;2023-04-03T14:31:17;9.50;;;2.13;;
6763;SDS011;47432;48.760;9.178;2023-04-03T14:33:44;10.00;;;2.20;;
6763;SDS011;47432;48.760;9.178;2023-04-03T14:36:20;10.57;;;2.10;;
6763;SDS011;47432;48.760;9.178;2023-04-03T14:38:50;8.27;;;2.13;;
6763;SDS011;47432;48.760;9.178;2023-04-03T14:41:18;13.10;;;2.43;;
6763;SDS011;47432;48.760;9.178;2023-04-03T14:43:48;9.80;;;2.53;;
6763;SDS011;47432;48.760;9.178;2023-04-03T14:46:17;9.10;;;2.27;;
6763;SDS011;47432;48.760;9.178;2023-04-03T14:48:49;9.10;;;2.07;;
6763;SDS011;47432;48.760;9.178;2023-04-03T14:51:15;9.07;;;2.20;;
6763;SDS011;47432;48.760;9.178;2023-04-03T14:53:41;9.67;;;2.23;;
6763;SDS011;47432;48.760;9.178;2023-04-03T14:56:17;9.27;;;1.80;;
6763;SDS011;47432;48.760;9.178;2023-04-03T14:58:57;8.40;;;1.87;;
6763;SDS011;47432;48.760;9.178;2023-04-03T15:01:26;8.47;;;1.83;;
6763;SDS011;47432;48.760;9.178;2023-04-03T15:03:53;10.23;;;1.93;;
6763;SDS011;47432;48.760;9.178;2023-04-03T15:06:19;10.33;;;2.00;;
6763;SDS011;47432;48.760;9.178;2023-04-03T15:08:46;9.93;;;1.80;;
6763;SDS011;47432;48.760;9.178;2023-04-03T15:11:13;9.67;;;2.10;;
6763;SDS011;47432;48.760;9.178;2023-04-03T15:13:39;8.70;;;2.07;;
6763;SDS011;47432;48.760;9.178;2023-04-03T15:16:06;8.57;;;2.07;;
6763;SDS011;47432;48.760;9.178;2023-04-03T15:18:41;10.30;;;2.40;;
6763;SDS011;47432;48.760;9.178;2023-04-03T15:21:08;9.87;;;2.00;;
6763;SDS011;47432;48.760;9.178;2023-04-03T15:23:34;8.50;;;1.80;;
6763;SDS011;47432;48.760;9.178;2023-04-03T15:26:00;10.47;;;2.00;;
6763;SDS011;47432;48.760;9.178;2023-04-03T15:28:31;10.57;;;2.00;;
6763;SDS011;47432;48.760;9.178;2023-04-03T15:31:01;10.33;;;1.60;;
6763;SDS011;47432;48.760;9.178;2023-04-03T15:33:28;9.67;;;2.17;;
6763;SDS011;47432;48.760;9.178;2023-04-03T15:35:55;9.30;;;2.07;;
6763;SDS011;47432;48.760;9.178;2023-04-03T15:38:21;9.10;;;2.03;;
6763;SDS011;47432;48.760;9.178;2023-04-03T15:40:47;9.20;;;1.87;;
6763;SDS011;47432;48.760;9.178;2023-04-03T15:43:12;9.40;;;2.47;;
6763;SDS011;47432;48.760;9.178;2023-04-03T15:45:39;10.80;;;2.00;;
6763;SDS011;47432;48.760;9.178;2023-04-03T15:48:05;8.60;;;1.83;;
6763;SDS011;47432;48.760;9.178;2023-04-03T15:50:32;8.80;;;2.10;;
6763;SDS011;47432;48.760;9.178;2023-04-03T15:52:59;9.80;;;2.13;;
6763;SDS011;47432;48.760;9.178;2023-04-03T15:55:27;8.80;;;2.00;;
6763;SDS011;47432;48.760;9.178;2023-04-03T15:57:56;9.73;;;2.10;;
6763;SDS011;47432;48.760;9.178;2023-04-03T16:00:25;11.50;;;2.20;;
6763;SDS011;47432;48.760;9.178;2023-04-03T16:03:02;10.10;;;2.50;;
6763;SDS011;47432;48.760;9.178;2023-04-03T16:05:32;10.07;;;2.07;;
6763;SDS011;47432;48.760;9.178;2023-04-03T16:08:00;11.53;;;2.60;;
6763;SDS011;47432;48.760;9.178;2023-04-03T16:10:27;9.40;;;2.27;;
6763;SDS011;47432;48.760;9.178;2023-04-03T16:12:53;11.37;;;2.40;;
6763;SDS011;47432;48.760;9.178;2023-04-03T16:15:19;9.53;;;2.47;;
6763;SDS011;47432;48.760;9.178;2023-04-03T16:17:44;9.50;;;2.00;;
6763;SDS011;47432;48.760;9.178;2023-04-03T16:20:11;11.03;;;2.30;;
6763;SDS011;47432;48.760;9.178;2023-04-03T16:22:38;10.30;;;2.47;;
6763;SDS011;47432;48.760;9.178;2023-04-03T16:25:05;10.60;;;2.30;;
6763;SDS011;47432;48.760;9.178;2023-04-03T16:27:32;10.83;;;2.47;;
6763;SDS011;47432;48.760;9.178;2023-04-03T16:29:58;11.07;;;2.60;;
6763;SDS011;47432;48.760;9.178;2023-04-03T16:32:25;9.77;;;2.20;;
6763;SDS011;47432;48.760;9.178;2023-04-03T16:34:54;10.20;;;2.50;;
6763;SDS011;47432;48.760;9.178;2023-04-03T16:37:21;9.57;;;2.20;;
6763;SDS011;47432;48.760;9.178;2023-04-03T16:39:46;11.03;;;2.00;;
6763;SDS011;47432;48.760;9.178;2023-04-03T16:42:13;8.30;;;1.80;;